sensor_id;sensor_type;location;lat;lon;timestamp;P1;durP1;ratioP1;P2;durP2;ratioP2
63050;SDS011;49136;47.416;19.402;2024-02-21T00:02:06;194.57;;;184.80;;
63050;SDS011;49136;47.416;19.402;2024-02-21T00:04:31;208.38;;;197.73;;
63050;SDS011;49136;47.416;19.402;2024-02-21T00:06:56;182.77;;;173.68;;
63050;SDS011;49136;47.416;19.402;2024-02-21T00:09:22;199.02;;;189.05;;
63050;SDS011;49136;47.416;19.402;2024-02-21T00:11:47;221.18;;;209.90;;
63050;SDS011;49136;47.416;19.402;2024-02-21T00:14:13;214.00;;;203.18;;
63050;SDS011;49136;47.416;19.402;2024-02-21T00:16:38;211.00;;;200.27;;
63050;SDS011;49136;47.416;19.402;2024-02-21T00:19:03;219.07;;;207.93;;
63050;SDS011;49136;47.416;19.402;2024-02-21T00:21:29;237.25;;;225.18;;
63050;SDS011;49136;47.416;19.402;2024-02-21T00:23:55;204.40;;;194.13;;
63050;SDS011;49136;47.416;19.402;2024-02-21T00:26:20;222.30;;;210.77;;
63050;SDS011;49136;47.416;19.402;2024-02-21T00:28:46;237.88;;;225.77;;
63050;SDS011;49136;47.416;19.402;2024-02-21T00:31:11;230.25;;;218.52;;
63050;SDS011;49136;47.416;19.402;2024-02-21T00:33:36;231.48;;;219.80;;
63050;SDS011;49136;47.416;19.402;2024-02-21T00:36:02;279.23;;;264.73;;
63050;SDS011;49136;47.416;19.402;2024-02-21T00:38:27;240.15;;;227.90;;
63050;SDS011;49136;47.416;19.402;2024-02-21T00:40:53;214.35;;;203.23;;
63050;SDS011;49136;47.416;19.402;2024-02-21T00:43:19;249.68;;;236.52;;
63050;SDS011;49136;47.416;19.402;2024-02-21T00:45:48;233.75;;;221.73;;
63050;SDS011;49136;47.416;19.402;2024-02-21T00:48:14;228.25;;;216.68;;
63050;SDS011;49136;47.416;19.402;2024-02-21T00:50:39;238.68;;;226.32;;
63050;SDS011;49136;47.416;19.402;2024-02-21T00:53:05;254.45;;;241.35;;
63050;SDS011;49136;47.416;19.402;2024-02-21T00:55:30;272.08;;;257.90;;
63050;SDS011;49136;47.416;19.402;2024-02-21T00:57:55;243.63;;;231.13;;
63050;SDS011;49136;47.416;19.402;2024-02-21T01:00:21;262.65;;;249.18;;
63050;SDS011;49136;47.416;19.402;2024-02-21T01:02:47;255.95;;;242.82;;
63050;SDS011;49136;47.416;19.402;2024-02-21T01:05:12;225.43;;;213.70;;
63050;SDS011;49136;47.416;19.402;2024-02-21T01:07:38;242.50;;;229.95;;
63050;SDS011;49136;47.416;19.402;2024-02-21T01:10:03;246.55;;;232.80;;
63050;SDS011;49136;47.416;19.402;2024-02-21T01:12:29;247.85;;;235.25;;
63050;SDS011;49136;47.416;19.402;2024-02-21T01:14:54;228.18;;;216.38;;
63050;SDS011;49136;47.416;19.402;2024-02-21T01:17:20;244.30;;;231.70;;
63050;SDS011;49136;47.416;19.402;2024-02-21T01:19:46;238.13;;;225.50;;
63050;SDS011;49136;47.416;19.402;2024-02-21T01:22:11;226.57;;;214.50;;
63050;SDS011;49136;47.416;19.402;2024-02-21T01:24:37;214.68;;;203.77;;
63050;SDS011;49136;47.416;19.402;2024-02-21T01:27:02;221.80;;;210.50;;
63050;SDS011;49136;47.416;19.402;2024-02-21T01:29:28;228.13;;;216.48;;
63050;SDS011;49136;47.416;19.402;2024-02-21T01:31:53;214.70;;;203.77;;
63050;SDS011;49136;47.416;19.402;2024-02-21T01:34:19;190.27;;;180.60;;
63050;SDS011;49136;47.416;19.402;2024-02-21T01:36:44;196.18;;;185.25;;
63050;SDS011;49136;47.416;19.402;2024-02-21T01:39:09;165.60;;;156.98;;
63050;SDS011;49136;47.416;19.402;2024-02-21T01:41:35;186.40;;;177.00;;
63050;SDS011;49136;47.416;19.402;2024-02-21T01:44:00;213.13;;;201.50;;
63050;SDS011;49136;47.416;19.402;2024-02-21T01:46:26;179.85;;;170.50;;
63050;SDS011;49136;47.416;19.402;2024-02-21T01:48:56;178.57;;;168.93;;
63050;SDS011;49136;47.416;19.402;2024-02-21T01:51:22;194.20;;;180.70;;
63050;SDS011;49136;47.416;19.402;2024-02-21T01:53:48;205.85;;;195.35;;
63050;SDS011;49136;47.416;19.402;2024-02-21T01:56:15;217.43;;;206.38;;
63050;SDS011;49136;47.416;19.402;2024-02-21T01:58:42;191.98;;;182.07;;
63050;SDS011;49136;47.416;19.402;2024-02-21T02:01:09;201.52;;;191.30;;
63050;SDS011;49136;47.416;19.402;2024-02-21T02:03:34;209.68;;;199.23;;
63050;SDS011;49136;47.416;19.402;2024-02-21T02:06:00;184.00;;;174.80;;
63050;SDS011;49136;47.416;19.402;2024-02-21T02:08:25;183.05;;;173.85;;
63050;SDS011;49136;47.416;19.402;2024-02-21T02:10:51;177.48;;;168.68;;
63050;SDS011;49136;47.416;19.402;2024-02-21T02:13:17;203.73;;;193.43;;
63050;SDS011;49136;47.416;19.402;2024-02-21T02:15:43;205.98;;;195.75;;
63050;SDS011;49136;47.416;19.402;2024-02-21T02:18:10;225.77;;;214.23;;
63050;SDS011;49136;47.416;19.402;2024-02-21T02:20:37;174.88;;;166.13;;
63050;SDS011;49136;47.416;19.402;2024-02-21T02:23:07;192.52;;;182.85;;
63050;SDS011;49136;47.416;19.402;2024-02-21T02:25:35;177.68;;;168.80;;
63050;SDS011;49136;47.416;19.402;2024-02-21T02:28:02;199.20;;;189.30;;
63050;SDS011;49136;47.416;19.402;2024-02-21T02:30:31;170.13;;;161.70;;
63050;SDS011;49136;47.416;19.402;2024-02-21T02:32:57;181.05;;;171.98;;
63050;SDS011;49136;47.416;19.402;2024-02-21T02:35:23;168.73;;;160.40;;
63050;SDS011;49136;47.416;19.402;2024-02-21T02:37:49;198.98;;;189.10;;
63050;SDS011;49136;47.416;19.402;2024-02-21T02:40:15;166.52;;;158.30;;
63050;SDS011;49136;47.416;19.402;2024-02-21T02:42:41;201.85;;;191.77;;
63050;SDS011;49136;47.416;19.402;2024-02-21T02:45:06;216.18;;;205.35;;
63050;SDS011;49136;47.416;19.402;2024-02-21T02:47:32;200.43;;;190.25;;
63050;SDS011;49136;47.416;19.402;2024-02-21T02:49:59;220.27;;;209.23;;
63050;SDS011;49136;47.416;19.402;2024-02-21T02:52:25;220.20;;;209.20;;
63050;SDS011;49136;47.416;19.402;2024-02-21T02:54:50;224.23;;;212.95;;
63050;SDS011;49136;47.416;19.402;2024-02-21T02:57:17;215.35;;;204.60;;
63050;SDS011;49136;47.416;19.402;2024-02-21T02:59:47;224.38;;;213.23;;
63050;SDS011;49136;47.416;19.402;2024-02-21T03:02:16;229.18;;;217.63;;
63050;SDS011;49136;47.416;19.402;2024-02-21T03:04:42;225.85;;;214.63;;
63050;SDS011;49136;47.416;19.402;2024-02-21T03:07:07;243.85;;;231.55;;
63050;SDS011;49136;47.416;19.402;2024-02-21T03:09:33;209.60;;;199.18;;
63050;SDS011;49136;47.416;19.402;2024-02-21T03:11:58;227.25;;;215.82;;
63050;SDS011;49136;47.416;19.402;2024-02-21T03:14:30;255.68;;;242.80;;
63050;SDS011;49136;47.416;19.402;2024-02-21T03:16:57;257.00;;;244.02;;
63050;SDS011;49136;47.416;19.402;2024-02-21T03:19:23;292.92;;;277.10;;
63050;SDS011;49136;47.416;19.402;2024-02-21T03:21:48;257.85;;;244.68;;
63050;SDS011;49136;47.416;19.402;2024-02-21T03:24:18;253.25;;;240.32;;
63050;SDS011;49136;47.416;19.402;2024-02-21T03:26:44;261.17;;;247.98;;
63050;SDS011;49136;47.416;19.402;2024-02-21T03:29:10;267.17;;;253.57;;
63050;SDS011;49136;47.416;19.402;2024-02-21T03:31:36;273.15;;;259.35;;
63050;SDS011;49136;47.416;19.402;2024-02-21T03:34:02;294.02;;;278.88;;
63050;SDS011;49136;47.416;19.402;2024-02-21T03:36:27;280.35;;;266.05;;
63050;SDS011;49136;47.416;19.402;2024-02-21T03:38:54;283.63;;;269.35;;
63050;SDS011;49136;47.416;19.402;2024-02-21T03:41:19;260.02;;;246.80;;
63050;SDS011;49136;47.416;19.402;2024-02-21T03:43:45;286.40;;;272.02;;
63050;SDS011;49136;47.416;19.402;2024-02-21T03:46:10;301.67;;;286.33;;
63050;SDS011;49136;47.416;19.402;2024-02-21T03:48:36;284.48;;;270.05;;
63050;SDS011;49136;47.416;19.402;2024-02-21T03:51:01;290.95;;;276.20;;
63050;SDS011;49136;47.416;19.402;2024-02-21T03:53:27;307.23;;;291.65;;
63050;SDS011;49136;47.416;19.402;2024-02-21T03:55:53;295.20;;;280.17;;
63050;SDS011;49136;47.416;19.402;2024-02-21T03:58:19;294.40;;;279.40;;
63050;SDS011;49136;47.416;19.402;2024-02-21T04:00:45;315.30;;;299.23;;
63050;SDS011;49136;47.416;19.402;2024-02-21T04:03:10;333.08;;;316.05;;
63050;SDS011;49136;47.416;19.402;2024-02-21T04:05:35;337.13;;;319.83;;
63050;SDS011;49136;47.416;19.402;2024-02-21T04:08:03;341.38;;;324.10;;
63050;SDS011;49136;47.416;19.402;2024-02-21T04:10:29;346.63;;;328.95;;
63050;SDS011;49136;47.416;19.402;2024-02-21T04:12:55;354.95;;;336.83;;
63050;SDS011;49136;47.416;19.402;2024-02-21T04:15:20;375.73;;;356.27;;
63050;SDS011;49136;47.416;19.402;2024-02-21T04:17:46;352.48;;;334.52;;
63050;SDS011;49136;47.416;19.402;2024-02-21T04:20:15;344.55;;;327.10;;
63050;SDS011;49136;47.416;19.402;2024-02-21T04:22:45;349.13;;;331.42;;
63050;SDS011;49136;47.416;19.402;2024-02-21T04:25:11;344.35;;;326.95;;
63050;SDS011;49136;47.416;19.402;2024-02-21T04:27:37;353.20;;;335.23;;
63050;SDS011;49136;47.416;19.402;2024-02-21T04:30:03;345.67;;;328.25;;
63050;SDS011;49136;47.416;19.402;2024-02-21T04:32:29;412.77;;;390.95;;
63050;SDS011;49136;47.416;19.402;2024-02-21T04:34:54;359.60;;;341.13;;
63050;SDS011;49136;47.416;19.402;2024-02-21T04:37:19;363.83;;;345.02;;
63050;SDS011;49136;47.416;19.402;2024-02-21T04:39:45;352.17;;;334.33;;
63050;SDS011;49136;47.416;19.402;2024-02-21T04:42:11;367.38;;;348.67;;
63050;SDS011;49136;47.416;19.402;2024-02-21T04:44:36;351.77;;;333.98;;
63050;SDS011;49136;47.416;19.402;2024-02-21T04:47:02;341.05;;;323.77;;
63050;SDS011;49136;47.416;19.402;2024-02-21T04:49:28;332.40;;;315.30;;
63050;SDS011;49136;47.416;19.402;2024-02-21T04:51:54;347.95;;;330.10;;
63050;SDS011;49136;47.416;19.402;2024-02-21T04:54:19;324.50;;;307.67;;
63050;SDS011;49136;47.416;19.402;2024-02-21T04:56:45;380.42;;;360.00;;
63050;SDS011;49136;47.416;19.402;2024-02-21T04:59:10;298.90;;;284.23;;
63050;SDS011;49136;47.416;19.402;2024-02-21T05:01:36;297.63;;;283.00;;
63050;SDS011;49136;47.416;19.402;2024-02-21T05:04:01;269.80;;;256.73;;
63050;SDS011;49136;47.416;19.402;2024-02-21T05:06:27;276.05;;;262.55;;
63050;SDS011;49136;47.416;19.402;2024-02-21T05:08:53;256.23;;;243.88;;
63050;SDS011;49136;47.416;19.402;2024-02-21T05:11:21;254.45;;;242.13;;
63050;SDS011;49136;47.416;19.402;2024-02-21T05:13:47;248.38;;;236.35;;
63050;SDS011;49136;47.416;19.402;2024-02-21T05:16:12;232.77;;;221.63;;
63050;SDS011;49136;47.416;19.402;2024-02-21T05:18:37;223.85;;;213.20;;
63050;SDS011;49136;47.416;19.402;2024-02-21T05:21:03;223.13;;;212.40;;
63050;SDS011;49136;47.416;19.402;2024-02-21T05:23:29;195.68;;;186.50;;
63050;SDS011;49136;47.416;19.402;2024-02-21T05:25:55;198.88;;;189.52;;
63050;SDS011;49136;47.416;19.402;2024-02-21T05:28:20;184.48;;;175.93;;
63050;SDS011;49136;47.416;19.402;2024-02-21T05:30:45;170.98;;;163.02;;
63050;SDS011;49136;47.416;19.402;2024-02-21T05:33:11;155.35;;;148.18;;
63050;SDS011;49136;47.416;19.402;2024-02-21T05:35:37;143.13;;;136.57;;
63050;SDS011;49136;47.416;19.402;2024-02-21T05:38:03;146.55;;;139.82;;
63050;SDS011;49136;47.416;19.402;2024-02-21T05:40:36;69.80;;;66.68;;
63050;SDS011;49136;47.416;19.402;2024-02-21T05:43:01;32.85;;;31.38;;
63050;SDS011;49136;47.416;19.402;2024-02-21T05:45:27;30.48;;;29.15;;
63050;SDS011;49136;47.416;19.402;2024-02-21T05:47:52;55.58;;;52.92;;
63050;SDS011;49136;47.416;19.402;2024-02-21T05:50:18;30.80;;;29.45;;
63050;SDS011;49136;47.416;19.402;2024-02-21T05:52:43;29.90;;;28.60;;
63050;SDS011;49136;47.416;19.402;2024-02-21T05:55:09;29.80;;;28.55;;
63050;SDS011;49136;47.416;19.402;2024-02-21T05:57:34;28.55;;;27.13;;
63050;SDS011;49136;47.416;19.402;2024-02-21T06:00:00;28.73;;;27.52;;
63050;SDS011;49136;47.416;19.402;2024-02-21T06:02:28;42.08;;;40.22;;
63050;SDS011;49136;47.416;19.402;2024-02-21T06:04:53;44.92;;;42.97;;
63050;SDS011;49136;47.416;19.402;2024-02-21T06:07:18;42.70;;;40.83;;
63050;SDS011;49136;47.416;19.402;2024-02-21T06:09:44;42.38;;;40.55;;
63050;SDS011;49136;47.416;19.402;2024-02-21T06:12:09;39.95;;;38.22;;
63050;SDS011;49136;47.416;19.402;2024-02-21T06:14:35;26.00;;;24.88;;
63050;SDS011;49136;47.416;19.402;2024-02-21T06:17:00;26.67;;;25.55;;
63050;SDS011;49136;47.416;19.402;2024-02-21T06:19:25;22.08;;;21.15;;
63050;SDS011;49136;47.416;19.402;2024-02-21T06:21:51;24.60;;;23.55;;
63050;SDS011;49136;47.416;19.402;2024-02-21T06:24:16;26.50;;;25.40;;
63050;SDS011;49136;47.416;19.402;2024-02-21T06:26:42;27.67;;;26.38;;
63050;SDS011;49136;47.416;19.402;2024-02-21T06:29:08;36.28;;;34.40;;
63050;SDS011;49136;47.416;19.402;2024-02-21T06:31:34;21.52;;;20.65;;
63050;SDS011;49136;47.416;19.402;2024-02-21T06:34:00;22.77;;;21.77;;
63050;SDS011;49136;47.416;19.402;2024-02-21T06:36:25;24.60;;;23.55;;
63050;SDS011;49136;47.416;19.402;2024-02-21T06:38:51;21.92;;;20.98;;
63050;SDS011;49136;47.416;19.402;2024-02-21T06:41:17;23.67;;;22.67;;
63050;SDS011;49136;47.416;19.402;2024-02-21T06:43:44;29.08;;;27.77;;
63050;SDS011;49136;47.416;19.402;2024-02-21T06:46:11;33.95;;;32.42;;
63050;SDS011;49136;47.416;19.402;2024-02-21T06:48:36;30.27;;;28.80;;
63050;SDS011;49136;47.416;19.402;2024-02-21T06:51:02;26.83;;;25.60;;
63050;SDS011;49136;47.416;19.402;2024-02-21T06:53:28;33.83;;;32.22;;
63050;SDS011;49136;47.416;19.402;2024-02-21T06:55:54;28.17;;;26.92;;
63050;SDS011;49136;47.416;19.402;2024-02-21T06:58:19;27.42;;;25.83;;
63050;SDS011;49136;47.416;19.402;2024-02-21T07:00:44;29.50;;;28.25;;
63050;SDS011;49136;47.416;19.402;2024-02-21T07:03:10;30.80;;;29.42;;
63050;SDS011;49136;47.416;19.402;2024-02-21T07:05:36;39.65;;;37.85;;
63050;SDS011;49136;47.416;19.402;2024-02-21T07:08:01;63.78;;;60.33;;
63050;SDS011;49136;47.416;19.402;2024-02-21T07:10:28;40.33;;;38.58;;
63050;SDS011;49136;47.416;19.402;2024-02-21T07:12:54;46.90;;;44.83;;
63050;SDS011;49136;47.416;19.402;2024-02-21T07:15:20;47.10;;;44.85;;
63050;SDS011;49136;47.416;19.402;2024-02-21T07:17:45;61.15;;;58.42;;
63050;SDS011;49136;47.416;19.402;2024-02-21T07:20:11;76.15;;;72.70;;
63050;SDS011;49136;47.416;19.402;2024-02-21T07:22:36;91.78;;;87.22;;
63050;SDS011;49136;47.416;19.402;2024-02-21T07:25:02;91.82;;;87.63;;
63050;SDS011;49136;47.416;19.402;2024-02-21T07:27:27;107.03;;;102.03;;
63050;SDS011;49136;47.416;19.402;2024-02-21T07:29:56;117.18;;;111.80;;
63050;SDS011;49136;47.416;19.402;2024-02-21T07:32:21;165.10;;;157.15;;
63050;SDS011;49136;47.416;19.402;2024-02-21T07:34:47;171.18;;;162.93;;
63050;SDS011;49136;47.416;19.402;2024-02-21T07:37:15;159.52;;;151.82;;
63050;SDS011;49136;47.416;19.402;2024-02-21T07:39:40;242.38;;;230.30;;
63050;SDS011;49136;47.416;19.402;2024-02-21T07:42:06;193.02;;;183.57;;
63050;SDS011;49136;47.416;19.402;2024-02-21T07:44:31;203.95;;;193.95;;
63050;SDS011;49136;47.416;19.402;2024-02-21T07:46:57;230.32;;;219.00;;
63050;SDS011;49136;47.416;19.402;2024-02-21T07:49:23;276.63;;;262.45;;
63050;SDS011;49136;47.416;19.402;2024-02-21T07:51:48;258.23;;;245.27;;
63050;SDS011;49136;47.416;19.402;2024-02-21T07:54:14;304.65;;;289.02;;
63050;SDS011;49136;47.416;19.402;2024-02-21T07:56:39;366.70;;;347.30;;
63050;SDS011;49136;47.416;19.402;2024-02-21T07:59:05;421.10;;;398.42;;
63050;SDS011;49136;47.416;19.402;2024-02-21T08:01:30;381.52;;;361.63;;
63050;SDS011;49136;47.416;19.402;2024-02-21T08:03:55;384.17;;;364.13;;
63050;SDS011;49136;47.416;19.402;2024-02-21T08:06:21;373.77;;;354.08;;
63050;SDS011;49136;47.416;19.402;2024-02-21T08:08:46;349.33;;;331.35;;
63050;SDS011;49136;47.416;19.402;2024-02-21T08:11:12;371.75;;;352.42;;
63050;SDS011;49136;47.416;19.402;2024-02-21T08:13:37;364.80;;;341.30;;
63050;SDS011;49136;47.416;19.402;2024-02-21T08:16:03;316.00;;;299.75;;
63050;SDS011;49136;47.416;19.402;2024-02-21T08:18:28;250.85;;;238.00;;
63050;SDS011;49136;47.416;19.402;2024-02-21T08:20:54;275.77;;;260.60;;
63050;SDS011;49136;47.416;19.402;2024-02-21T08:23:19;271.40;;;258.05;;
63050;SDS011;49136;47.416;19.402;2024-02-21T08:25:44;269.63;;;255.88;;
63050;SDS011;49136;47.416;19.402;2024-02-21T08:28:10;246.40;;;233.93;;
63050;SDS011;49136;47.416;19.402;2024-02-21T08:30:36;228.15;;;217.02;;
63050;SDS011;49136;47.416;19.402;2024-02-21T08:33:01;186.82;;;177.75;;
63050;SDS011;49136;47.416;19.402;2024-02-21T08:35:26;167.65;;;159.60;;
63050;SDS011;49136;47.416;19.402;2024-02-21T08:37:52;166.98;;;158.77;;
63050;SDS011;49136;47.416;19.402;2024-02-21T08:40:17;136.20;;;129.05;;
63050;SDS011;49136;47.416;19.402;2024-02-21T08:42:48;223.50;;;209.88;;
63050;SDS011;49136;47.416;19.402;2024-02-21T08:45:14;126.53;;;119.63;;
63050;SDS011;49136;47.416;19.402;2024-02-21T08:47:40;116.78;;;111.15;;
63050;SDS011;49136;47.416;19.402;2024-02-21T08:50:06;101.35;;;96.45;;
63050;SDS011;49136;47.416;19.402;2024-02-21T08:52:32;118.32;;;112.47;;
63050;SDS011;49136;47.416;19.402;2024-02-21T08:54:58;75.55;;;71.97;;
63050;SDS011;49136;47.416;19.402;2024-02-21T08:57:23;75.70;;;72.13;;
63050;SDS011;49136;47.416;19.402;2024-02-21T08:59:49;85.07;;;81.00;;
63050;SDS011;49136;47.416;19.402;2024-02-21T09:02:14;66.60;;;63.50;;
63050;SDS011;49136;47.416;19.402;2024-02-21T09:04:42;64.00;;;61.03;;
63050;SDS011;49136;47.416;19.402;2024-02-21T09:07:09;63.90;;;60.88;;
63050;SDS011;49136;47.416;19.402;2024-02-21T09:09:36;75.38;;;71.78;;
63050;SDS011;49136;47.416;19.402;2024-02-21T09:12:03;55.30;;;52.70;;
63050;SDS011;49136;47.416;19.402;2024-02-21T09:14:31;62.00;;;59.05;;
63050;SDS011;49136;47.416;19.402;2024-02-21T09:16:57;83.43;;;79.20;;
63050;SDS011;49136;47.416;19.402;2024-02-21T09:19:22;78.10;;;74.43;;
63050;SDS011;49136;47.416;19.402;2024-02-21T09:21:48;74.40;;;70.90;;
63050;SDS011;49136;47.416;19.402;2024-02-21T09:24:14;48.53;;;46.22;;
63050;SDS011;49136;47.416;19.402;2024-02-21T09:26:39;36.60;;;34.72;;
63050;SDS011;49136;47.416;19.402;2024-02-21T09:29:04;42.42;;;40.50;;
63050;SDS011;49136;47.416;19.402;2024-02-21T09:31:30;55.55;;;52.85;;
63050;SDS011;49136;47.416;19.402;2024-02-21T09:33:58;45.20;;;43.10;;
63050;SDS011;49136;47.416;19.402;2024-02-21T09:36:23;48.38;;;46.08;;
63050;SDS011;49136;47.416;19.402;2024-02-21T09:38:49;47.97;;;45.75;;
63050;SDS011;49136;47.416;19.402;2024-02-21T09:41:15;64.78;;;61.25;;
63050;SDS011;49136;47.416;19.402;2024-02-21T09:43:44;62.47;;;59.42;;
63050;SDS011;49136;47.416;19.402;2024-02-21T09:46:16;56.17;;;53.47;;
63050;SDS011;49136;47.416;19.402;2024-02-21T09:49:09;52.33;;;49.90;;
63050;SDS011;49136;47.416;19.402;2024-02-21T09:51:49;66.38;;;63.08;;
63050;SDS011;49136;47.416;19.402;2024-02-21T09:54:16;82.10;;;77.72;;
63050;SDS011;49136;47.416;19.402;2024-02-21T09:56:46;73.07;;;69.35;;
63050;SDS011;49136;47.416;19.402;2024-02-21T09:59:13;67.78;;;64.45;;
63050;SDS011;49136;47.416;19.402;2024-02-21T10:01:41;69.05;;;65.57;;
63050;SDS011;49136;47.416;19.402;2024-02-21T10:04:11;39.92;;;38.15;;
63050;SDS011;49136;47.416;19.402;2024-02-21T10:06:36;57.17;;;54.42;;
63050;SDS011;49136;47.416;19.402;2024-02-21T10:09:02;67.78;;;63.92;;
63050;SDS011;49136;47.416;19.402;2024-02-21T10:11:28;66.03;;;62.75;;
63050;SDS011;49136;47.416;19.402;2024-02-21T10:14:06;65.57;;;62.47;;
63050;SDS011;49136;47.416;19.402;2024-02-21T10:16:32;52.72;;;50.33;;
63050;SDS011;49136;47.416;19.402;2024-02-21T10:18:58;49.67;;;47.35;;
63050;SDS011;49136;47.416;19.402;2024-02-21T10:21:24;86.55;;;81.35;;
63050;SDS011;49136;47.416;19.402;2024-02-21T10:23:50;178.80;;;166.75;;
63050;SDS011;49136;47.416;19.402;2024-02-21T10:26:16;145.02;;;134.75;;
63050;SDS011;49136;47.416;19.402;2024-02-21T10:28:43;151.40;;;140.98;;
63050;SDS011;49136;47.416;19.402;2024-02-21T10:31:11;179.27;;;167.43;;
63050;SDS011;49136;47.416;19.402;2024-02-21T10:33:53;152.52;;;142.00;;
63050;SDS011;49136;47.416;19.402;2024-02-21T10:36:28;130.60;;;122.43;;
63050;SDS011;49136;47.416;19.402;2024-02-21T10:38:53;130.82;;;122.53;;
63050;SDS011;49136;47.416;19.402;2024-02-21T10:41:20;125.95;;;117.63;;
63050;SDS011;49136;47.416;19.402;2024-02-21T10:43:47;130.38;;;122.07;;
63050;SDS011;49136;47.416;19.402;2024-02-21T10:46:18;141.07;;;132.23;;
63050;SDS011;49136;47.416;19.402;2024-02-21T10:48:45;189.40;;;176.73;;
63050;SDS011;49136;47.416;19.402;2024-02-21T10:51:15;126.82;;;118.38;;
63050;SDS011;49136;47.416;19.402;2024-02-21T10:56:29;85.80;;;80.60;;
63050;SDS011;49136;47.416;19.402;2024-02-21T10:58:58;48.63;;;45.78;;
63050;SDS011;49136;47.416;19.402;2024-02-21T11:01:26;42.78;;;40.72;;
63050;SDS011;49136;47.416;19.402;2024-02-21T11:03:54;101.93;;;95.60;;
63050;SDS011;49136;47.416;19.402;2024-02-21T11:06:21;142.57;;;133.55;;
63050;SDS011;49136;47.416;19.402;2024-02-21T11:08:58;146.48;;;136.73;;
63050;SDS011;49136;47.416;19.402;2024-02-21T11:11:34;185.70;;;171.82;;
63050;SDS011;49136;47.416;19.402;2024-02-21T11:14:07;160.63;;;150.27;;
63050;SDS011;49136;47.416;19.402;2024-02-21T11:16:42;176.88;;;164.43;;
63050;SDS011;49136;47.416;19.402;2024-02-21T11:19:08;199.77;;;185.73;;
63050;SDS011;49136;47.416;19.402;2024-02-21T11:21:52;241.95;;;225.02;;
63050;SDS011;49136;47.416;19.402;2024-02-21T11:24:26;264.80;;;244.60;;
63050;SDS011;49136;47.416;19.402;2024-02-21T11:26:53;252.32;;;233.00;;
63050;SDS011;49136;47.416;19.402;2024-02-21T11:29:23;263.60;;;243.65;;
63050;SDS011;49136;47.416;19.402;2024-02-21T11:31:49;267.08;;;248.00;;
63050;SDS011;49136;47.416;19.402;2024-02-21T11:34:17;88.93;;;83.95;;
63050;SDS011;49136;47.416;19.402;2024-02-21T11:36:47;112.05;;;104.57;;
63050;SDS011;49136;47.416;19.402;2024-02-21T11:39:21;112.68;;;105.53;;
63050;SDS011;49136;47.416;19.402;2024-02-21T11:41:59;106.38;;;99.93;;
63050;SDS011;49136;47.416;19.402;2024-02-21T11:44:29;104.72;;;97.80;;
63050;SDS011;49136;47.416;19.402;2024-02-21T11:46:55;81.55;;;77.18;;
63050;SDS011;49136;47.416;19.402;2024-02-21T11:49:20;215.90;;;199.85;;
63050;SDS011;49136;47.416;19.402;2024-02-21T11:51:46;247.25;;;228.10;;
63050;SDS011;49136;47.416;19.402;2024-02-21T11:54:11;238.30;;;219.90;;
63050;SDS011;49136;47.416;19.402;2024-02-21T11:56:41;206.63;;;191.52;;
63050;SDS011;49136;47.416;19.402;2024-02-21T11:59:06;205.50;;;191.13;;
63050;SDS011;49136;47.416;19.402;2024-02-21T12:01:32;219.57;;;202.88;;
63050;SDS011;49136;47.416;19.402;2024-02-21T12:03:57;203.65;;;188.00;;
63050;SDS011;49136;47.416;19.402;2024-02-21T12:06:22;168.63;;;156.43;;
63050;SDS011;49136;47.416;19.402;2024-02-21T12:08:48;184.30;;;170.48;;
63050;SDS011;49136;47.416;19.402;2024-02-21T12:11:18;163.75;;;152.27;;
63050;SDS011;49136;47.416;19.402;2024-02-21T12:13:45;161.88;;;150.57;;
63050;SDS011;49136;47.416;19.402;2024-02-21T12:16:10;132.00;;;122.38;;
63050;SDS011;49136;47.416;19.402;2024-02-21T12:18:36;115.80;;;108.38;;
63050;SDS011;49136;47.416;19.402;2024-02-21T12:21:01;103.47;;;96.88;;
63050;SDS011;49136;47.416;19.402;2024-02-21T12:23:27;120.25;;;112.25;;
63050;SDS011;49136;47.416;19.402;2024-02-21T12:25:52;117.53;;;109.53;;
63050;SDS011;49136;47.416;19.402;2024-02-21T12:28:20;106.38;;;98.82;;
63050;SDS011;49136;47.416;19.402;2024-02-21T12:30:47;100.30;;;93.70;;
63050;SDS011;49136;47.416;19.402;2024-02-21T12:33:12;100.20;;;93.60;;
63050;SDS011;49136;47.416;19.402;2024-02-21T12:35:39;143.15;;;133.52;;
63050;SDS011;49136;47.416;19.402;2024-02-21T12:38:07;92.32;;;86.35;;
63050;SDS011;49136;47.416;19.402;2024-02-21T12:40:33;100.88;;;94.53;;
63050;SDS011;49136;47.416;19.402;2024-02-21T12:43:01;83.50;;;78.65;;
63050;SDS011;49136;47.416;19.402;2024-02-21T12:45:28;76.90;;;72.40;;
63050;SDS011;49136;47.416;19.402;2024-02-21T12:47:53;77.82;;;73.10;;
63050;SDS011;49136;47.416;19.402;2024-02-21T12:50:18;73.43;;;68.95;;
63050;SDS011;49136;47.416;19.402;2024-02-21T12:52:44;75.05;;;70.63;;
63050;SDS011;49136;47.416;19.402;2024-02-21T12:55:10;105.47;;;98.28;;
63050;SDS011;49136;47.416;19.402;2024-02-21T12:57:37;64.70;;;61.05;;
63050;SDS011;49136;47.416;19.402;2024-02-21T13:00:02;86.15;;;81.03;;
63050;SDS011;49136;47.416;19.402;2024-02-21T13:02:28;76.93;;;72.70;;
63050;SDS011;49136;47.416;19.402;2024-02-21T13:04:56;90.40;;;84.93;;
63050;SDS011;49136;47.416;19.402;2024-02-21T13:07:24;66.57;;;62.67;;
63050;SDS011;49136;47.416;19.402;2024-02-21T13:09:49;63.55;;;59.67;;
63050;SDS011;49136;47.416;19.402;2024-02-21T13:12:15;78.68;;;74.28;;
63050;SDS011;49136;47.416;19.402;2024-02-21T13:14:40;88.65;;;83.30;;
63050;SDS011;49136;47.416;19.402;2024-02-21T13:17:08;81.47;;;76.55;;
63050;SDS011;49136;47.416;19.402;2024-02-21T13:19:34;68.30;;;64.22;;
63050;SDS011;49136;47.416;19.402;2024-02-21T13:22:02;83.75;;;78.70;;
63050;SDS011;49136;47.416;19.402;2024-02-21T13:24:27;69.28;;;65.13;;
63050;SDS011;49136;47.416;19.402;2024-02-21T13:26:53;63.97;;;60.63;;
63050;SDS011;49136;47.416;19.402;2024-02-21T13:29:18;58.50;;;55.20;;
63050;SDS011;49136;47.416;19.402;2024-02-21T13:31:45;83.18;;;78.13;;
63050;SDS011;49136;47.416;19.402;2024-02-21T13:34:11;65.00;;;60.42;;
63050;SDS011;49136;47.416;19.402;2024-02-21T13:36:36;87.32;;;81.97;;
63050;SDS011;49136;47.416;19.402;2024-02-21T13:39:02;55.53;;;52.63;;
63050;SDS011;49136;47.416;19.402;2024-02-21T13:41:30;53.75;;;51.03;;
63050;SDS011;49136;47.416;19.402;2024-02-21T13:43:55;60.88;;;57.60;;
63050;SDS011;49136;47.416;19.402;2024-02-21T13:46:21;76.43;;;71.70;;
63050;SDS011;49136;47.416;19.402;2024-02-21T13:48:47;71.70;;;67.53;;
63050;SDS011;49136;47.416;19.402;2024-02-21T13:51:12;40.03;;;38.10;;
63050;SDS011;49136;47.416;19.402;2024-02-21T13:53:37;35.80;;;34.08;;